This is the latest recevied weather packets stored in our database for station/object DJ2KUA-6. If no packets are shown the sender has not sent any weather packets the latest 10 day(s).
| Time | Temp. | Humidity | Pressure | Rain* | Wind** | Luminosity | Snow |
|---|---|---|---|---|---|---|---|
| 1777660321 | 20.56° C | 35% | 1074 hPa | 0 mm | - | - | - |
| 1777659183 | 21.11° C | 33% | 1074 hPa | 0 mm | - | - | - |
| 1777658042 | 21.67° C | 31% | 1074 hPa | 0 mm | - | - | - |
| 1777656900 | 22.22° C | 31% | 1074 hPa | 0 mm | - | - | - |
| 1777654622 | 23.89° C | 29% | 1074 hPa | 0 mm | - | - | - |
| 1777653480 | 24.44° C | 28% | 1074 hPa | 0 mm | - | - | - |
| 1777652341 | 25° C | 27% | 1075 hPa | 0 mm | - | - | - |
| 1777651202 | 25.56° C | 27% | 1075 hPa | 0 mm | - | - | - |
| 1777648923 | 26.11° C | 27% | 1075 hPa | 0 mm | - | - | - |
| 1777647782 | 26.67° C | 26% | 1075 hPa | 0 mm | - | - | - |
| 1777646640 | 27.78° C | 24% | 1075 hPa | 0 mm | - | - | - |
| 1777645501 | 28.89° C | 25% | 1076 hPa | 0 mm | - | - | - |
| 1777643221 | 27.22° C | 26% | 1076 hPa | 0 mm | - | - | - |
| 1777642082 | 26.67° C | 27% | 1076 hPa | 0 mm | - | - | - |
| 1777640942 | 26.11° C | 27% | 1076 hPa | 0 mm | - | - | - |
| 1777639803 | 25.56° C | 27% | 1077 hPa | 0 mm | - | - | - |
| 1777636383 | 22.78° C | 29% | 1077 hPa | 0 mm | - | - | - |
| 1777635240 | 22.22° C | 29% | 1077 hPa | 0 mm | - | - | - |
| 1777631823 | 20.56° C | 32% | 1078 hPa | 0 mm | - | - | - |
| 1777630682 | 20° C | 32% | 1078 hPa | 0 mm | - | - | - |
| 1777628401 | 19.44° C | 33% | 1079 hPa | 0 mm | - | - | - |
| 1777627260 | 18.89° C | 34% | 1079 hPa | 0 mm | - | - | - |
| 1777626631 | 18.33° C | 34% | 1079 hPa | 0 mm | - | - | - |
| 1777625492 | 17.78° C | 35% | 1079 hPa | 0 mm | - | - | - |
| 1777624353 | 17.22° C | 36% | 1079 hPa | 0 mm | - | - | - |
* Rain latest hour (hover to see other rain measurements)
** Current wind speed in m/s (hover to see current wind gust speed)